UAL1069 KSAN-KSFO
Flight info
| Callsign | UAL1069 |
|---|---|
| Flight time | N/A |
| Altitude | 30000 |
| Route | KSAN SID LAX J126 RZS J501 BSR STAR KSFO |
| Aircraft | A320/M-SDE/C |
Departure
| Time | 2026-04-23 07:26 |
|---|---|
| Airport | San Diego International Airport (KSAN) |
Arrival
| Time | N/A |
|---|---|
| Airport | San Francisco International Airport (KSFO) |
| Time | Latitude | Longitude | Altitude | Speed | Heading |
|---|---|---|---|---|---|
| 2026-04-23 07:08 | 32.73203 | -117.19123 | 30 ft | 0 kts | 294° |
| 2026-04-23 07:18 | 32.73209 | -117.19125 | 29 ft | 2 kts | 355° |
| 2026-04-23 07:19 | 32.73213 | -117.19094 | 29 ft | 7 kts | 84° |
| 2026-04-23 07:19 | 32.73259 | -117.19029 | 29 ft | 14 kts | 74° |
| 2026-04-23 07:19 | 32.73233 | -117.18890 | 30 ft | 21 kts | 106° |
| 2026-04-23 07:19 | 32.73215 | -117.18815 | 31 ft | 0 kts | 105° |
| 2026-04-23 07:24 | 32.73201 | -117.18756 | 38 ft | 15 kts | 107° |
| 2026-04-23 07:24 | 32.73158 | -117.18583 | 33 ft | 29 kts | 105° |
| 2026-04-23 07:24 | 32.73098 | -117.18308 | 31 ft | 40 kts | 107° |
| 2026-04-23 07:24 | 32.73092 | -117.18121 | 29 ft | 15 kts | 3° |
| 2026-04-23 07:25 | 32.73167 | -117.18191 | 31 ft | 13 kts | 289° |
| 2026-04-23 07:25 | 32.73172 | -117.18207 | 31 ft | 0 kts | 288° |
| 2026-04-23 07:25 | 32.73204 | -117.18317 | 32 ft | 49 kts | 288° |
| 2026-04-23 07:26 | 32.73383 | -117.19067 | 28 ft | 142 kts | 286° |
| 2026-04-23 07:26 | 32.73707 | -117.20360 | 636 ft | 173 kts | 287° |
| 2026-04-23 07:26 | 32.74046 | -117.21751 | 1728 ft | 180 kts | 287° |
| 2026-04-23 07:26 | 32.74554 | -117.23179 | 2398 ft | 194 kts | 303° |
| 2026-04-23 07:27 | 32.75485 | -117.24442 | 2658 ft | 218 kts | 320° |
| 2026-04-23 07:27 | 32.76790 | -117.25547 | 3094 ft | 240 kts | 327° |
| 2026-04-23 07:27 | 32.78224 | -117.26630 | 3769 ft | 248 kts | 327° |
| 2026-04-23 07:27 | 32.79676 | -117.27769 | 4512 ft | 251 kts | 324° |
| 2026-04-23 07:28 | 32.81100 | -117.28981 | 5288 ft | 252 kts | 321° |
| 2026-04-23 07:28 | 32.82496 | -117.30260 | 6021 ft | 254 kts | 319° |
| 2026-04-23 07:28 | 32.83875 | -117.31592 | 6738 ft | 257 kts | 318° |
| 2026-04-23 07:28 | 32.85249 | -117.32962 | 7420 ft | 259 kts | 317° |
| 2026-04-23 07:29 | 32.86625 | -117.34353 | 8131 ft | 261 kts | 317° |
| 2026-04-23 07:29 | 32.88008 | -117.35757 | 8858 ft | 262 kts | 316° |
| 2026-04-23 07:29 | 32.88928 | -117.36689 | 9338 ft | 263 kts | 316° |
| 2026-04-23 07:29 | 32.90329 | -117.38106 | 10052 ft | 265 kts | 316° |
| 2026-04-23 07:30 | 32.91770 | -117.39564 | 10413 ft | 281 kts | 316° |
| 2026-04-23 07:30 | 32.93306 | -117.41120 | 10623 ft | 298 kts | 316° |
| 2026-04-23 07:30 | 32.94930 | -117.42762 | 10834 ft | 314 kts | 316° |
| 2026-04-23 07:30 | 32.96633 | -117.44480 | 11020 ft | 327 kts | 316° |
| 2026-04-23 07:31 | 32.98404 | -117.46262 | 11182 ft | 339 kts | 316° |
| 2026-04-23 07:31 | 33.00232 | -117.48101 | 11351 ft | 348 kts | 317° |
| 2026-04-23 07:31 | 33.02102 | -117.49980 | 11593 ft | 354 kts | 317° |
| 2026-04-23 07:31 | 33.03988 | -117.51875 | 11923 ft | 357 kts | 316° |
| 2026-04-23 07:32 | 33.05889 | -117.53786 | 12339 ft | 357 kts | 316° |
| 2026-04-23 07:32 | 33.07792 | -117.55702 | 12743 ft | 359 kts | 316° |
| 2026-04-23 07:32 | 33.09704 | -117.57632 | 13146 ft | 361 kts | 316° |
| 2026-04-23 07:32 | 33.11624 | -117.59572 | 13577 ft | 363 kts | 316° |
| 2026-04-23 07:33 | 33.13560 | -117.61530 | 14006 ft | 366 kts | 315° |
| 2026-04-23 07:33 | 33.15509 | -117.63502 | 14417 ft | 368 kts | 315° |
| 2026-04-23 07:33 | 33.17469 | -117.65487 | 14839 ft | 370 kts | 315° |
| 2026-04-23 07:33 | 33.19440 | -117.67483 | 15269 ft | 373 kts | 315° |
| 2026-04-23 07:34 | 33.21418 | -117.69489 | 15696 ft | 375 kts | 315° |
| 2026-04-23 07:34 | 33.23409 | -117.71509 | 16142 ft | 376 kts | 315° |
| 2026-04-23 07:34 | 33.25407 | -117.73536 | 16606 ft | 377 kts | 315° |
| 2026-04-23 07:34 | 33.27412 | -117.75572 | 17021 ft | 379 kts | 315° |
| 2026-04-23 07:35 | 33.29428 | -117.77621 | 17427 ft | 382 kts | 315° |
| 2026-04-23 07:35 | 33.31431 | -117.79658 | 17823 ft | 384 kts | 315° |
| 2026-04-23 07:35 | 33.33468 | -117.81730 | 18220 ft | 386 kts | 315° |
| 2026-04-23 07:35 | 33.35518 | -117.83817 | 18580 ft | 388 kts | 315° |
| 2026-04-23 07:36 | 33.37578 | -117.85916 | 18929 ft | 390 kts | 315° |
| 2026-04-23 07:36 | 33.39647 | -117.88023 | 19288 ft | 391 kts | 315° |
| 2026-04-23 07:36 | 33.41723 | -117.90139 | 19649 ft | 393 kts | 315° |
| 2026-04-23 07:36 | 33.43801 | -117.92258 | 20134 ft | 391 kts | 314° |
| 2026-04-23 07:37 | 33.45872 | -117.94370 | 20578 ft | 391 kts | 314° |
| 2026-04-23 07:37 | 33.47947 | -117.96492 | 20954 ft | 394 kts | 314° |
| 2026-04-23 07:37 | 33.50033 | -117.98627 | 21319 ft | 396 kts | 314° |
| 2026-04-23 07:37 | 33.52129 | -118.00775 | 21701 ft | 398 kts | 314° |
| 2026-04-23 07:38 | 33.54237 | -118.02935 | 22071 ft | 400 kts | 314° |
| 2026-04-23 07:38 | 33.56355 | -118.05106 | 22433 ft | 402 kts | 314° |
| 2026-04-23 07:38 | 33.58483 | -118.07290 | 22765 ft | 404 kts | 314° |
| 2026-04-23 07:38 | 33.60628 | -118.09492 | 23064 ft | 407 kts | 314° |
| 2026-04-23 07:39 | 33.62781 | -118.11703 | 23501 ft | 407 kts | 314° |
| 2026-04-23 07:39 | 33.64934 | -118.13913 | 23841 ft | 408 kts | 314° |
| 2026-04-23 07:39 | 33.67096 | -118.16136 | 24127 ft | 410 kts | 314° |
| 2026-04-23 07:39 | 33.69264 | -118.18367 | 24407 ft | 412 kts | 314° |
| 2026-04-23 07:40 | 33.71444 | -118.20612 | 24688 ft | 413 kts | 314° |
| 2026-04-23 07:40 | 33.73631 | -118.22867 | 24976 ft | 415 kts | 314° |
| 2026-04-23 07:40 | 33.75827 | -118.25131 | 25276 ft | 416 kts | 314° |
| 2026-04-23 07:40 | 33.78029 | -118.27403 | 25568 ft | 418 kts | 314° |
| 2026-04-23 07:41 | 33.80235 | -118.29682 | 25897 ft | 419 kts | 314° |
| 2026-04-23 07:41 | 33.82448 | -118.31970 | 26159 ft | 421 kts | 314° |
| 2026-04-23 07:41 | 33.84680 | -118.34278 | 26437 ft | 423 kts | 313° |
| 2026-04-23 07:41 | 33.86886 | -118.36561 | 26711 ft | 425 kts | 313° |
| 2026-04-23 07:42 | 33.89128 | -118.38882 | 26948 ft | 426 kts | 313° |
| 2026-04-23 07:42 | 33.91381 | -118.41218 | 27202 ft | 428 kts | 313° |
| 2026-04-23 07:42 | 33.93517 | -118.43693 | 27451 ft | 422 kts | 304° |
| 2026-04-23 07:42 | 33.95198 | -118.46620 | 27714 ft | 419 kts | 297° |
| 2026-04-23 07:43 | 33.96577 | -118.49649 | 28027 ft | 416 kts | 293° |
| 2026-04-23 07:43 | 33.97850 | -118.52773 | 28417 ft | 414 kts | 292° |
| 2026-04-23 07:43 | 33.99091 | -118.55904 | 28740 ft | 414 kts | 292° |
| 2026-04-23 07:43 | 34.00346 | -118.59023 | 29118 ft | 413 kts | 292° |
| 2026-04-23 07:44 | 34.01627 | -118.62121 | 29509 ft | 412 kts | 292° |
| 2026-04-23 07:44 | 34.02927 | -118.65190 | 29911 ft | 410 kts | 293° |
| 2026-04-23 07:44 | 34.04243 | -118.68245 | 30080 ft | 411 kts | 293° |
| 2026-04-23 07:45 | 34.06904 | -118.74352 | 30092 ft | 412 kts | 294° |
| 2026-04-23 07:45 | 34.09557 | -118.80428 | 30098 ft | 412 kts | 294° |
| 2026-04-23 07:46 | 34.12219 | -118.86551 | 30107 ft | 412 kts | 293° |
| 2026-04-23 07:46 | 34.14875 | -118.92684 | 30105 ft | 412 kts | 293° |
| 2026-04-23 07:47 | 34.17528 | -118.98822 | 30098 ft | 413 kts | 293° |
| 2026-04-23 07:47 | 34.20187 | -119.04988 | 30106 ft | 414 kts | 293° |
| 2026-04-23 07:48 | 34.22846 | -119.11160 | 30100 ft | 414 kts | 293° |
| 2026-04-23 07:48 | 34.25483 | -119.17293 | 30098 ft | 414 kts | 293° |
| 2026-04-23 07:49 | 34.28136 | -119.23473 | 30101 ft | 414 kts | 293° |
| 2026-04-23 07:49 | 34.30781 | -119.29646 | 30101 ft | 413 kts | 293° |
| 2026-04-23 07:50 | 34.33418 | -119.35815 | 30095 ft | 413 kts | 293° |
| 2026-04-23 07:50 | 34.36056 | -119.41995 | 30092 ft | 413 kts | 293° |
| 2026-04-23 07:51 | 34.38690 | -119.48174 | 30088 ft | 413 kts | 293° |
| 2026-04-23 07:51 | 34.41317 | -119.54350 | 30081 ft | 412 kts | 293° |
| 2026-04-23 07:52 | 34.43942 | -119.60534 | 30092 ft | 413 kts | 293° |
| 2026-04-23 07:52 | 34.46566 | -119.66728 | 30093 ft | 413 kts | 293° |
| 2026-04-23 07:53 | 34.49194 | -119.72923 | 30097 ft | 414 kts | 294° |
| 2026-04-23 07:53 | 34.52541 | -119.78604 | 30108 ft | 423 kts | 308° |
| 2026-04-23 07:54 | 34.56802 | -119.83579 | 30104 ft | 426 kts | 311° |
| 2026-04-23 07:54 | 34.61237 | -119.88394 | 30125 ft | 428 kts | 312° |
| 2026-04-23 07:55 | 34.65697 | -119.93199 | 30121 ft | 428 kts | 312° |
| 2026-04-23 07:55 | 34.70137 | -119.98024 | 30128 ft | 428 kts | 312° |
| 2026-04-23 07:56 | 34.74562 | -120.02864 | 30145 ft | 427 kts | 311° |
| 2026-04-23 07:56 | 34.78966 | -120.07698 | 30148 ft | 426 kts | 311° |
| 2026-04-23 07:57 | 34.83362 | -120.12531 | 30136 ft | 426 kts | 311° |
| 2026-04-23 07:57 | 34.87775 | -120.17392 | 30170 ft | 428 kts | 312° |
| 2026-04-23 07:58 | 34.92195 | -120.22260 | 30174 ft | 428 kts | 311° |
| 2026-04-23 07:58 | 34.96612 | -120.27131 | 30174 ft | 428 kts | 311° |
| 2026-04-23 07:59 | 35.01022 | -120.32003 | 30176 ft | 427 kts | 311° |
| 2026-04-23 07:59 | 35.05424 | -120.36873 | 30181 ft | 427 kts | 311° |
| 2026-04-23 08:00 | 35.09818 | -120.41742 | 30179 ft | 426 kts | 311° |
| 2026-04-23 08:00 | 35.14208 | -120.46617 | 30184 ft | 427 kts | 311° |
| 2026-04-23 08:01 | 35.18599 | -120.51500 | 30181 ft | 427 kts | 311° |
| 2026-04-23 08:01 | 35.22958 | -120.56355 | 30218 ft | 427 kts | 311° |
| 2026-04-23 08:02 | 35.27329 | -120.61228 | 30162 ft | 423 kts | 311° |
| 2026-04-23 08:02 | 35.31678 | -120.66085 | 30166 ft | 423 kts | 311° |
| 2026-04-23 08:03 | 35.36021 | -120.70942 | 30171 ft | 423 kts | 311° |
| 2026-04-23 08:03 | 35.40360 | -120.75804 | 30193 ft | 422 kts | 311° |
| 2026-04-23 08:04 | 35.44681 | -120.80651 | 30192 ft | 420 kts | 311° |
| 2026-04-23 08:04 | 35.48988 | -120.85490 | 30220 ft | 420 kts | 311° |
| 2026-04-23 08:05 | 35.53295 | -120.90338 | 30218 ft | 420 kts | 311° |
| 2026-04-23 08:05 | 35.57594 | -120.95184 | 30214 ft | 419 kts | 311° |
| 2026-04-23 08:06 | 35.61881 | -121.00023 | 30205 ft | 418 kts | 311° |
| 2026-04-23 08:06 | 35.66165 | -121.04867 | 30212 ft | 418 kts | 311° |
| 2026-04-23 08:07 | 35.70420 | -121.09686 | 30203 ft | 419 kts | 311° |
| 2026-04-23 08:07 | 35.74700 | -121.14538 | 30216 ft | 417 kts | 311° |
| 2026-04-23 08:08 | 35.78960 | -121.19374 | 30216 ft | 416 kts | 311° |
| 2026-04-23 08:08 | 35.83209 | -121.24208 | 30217 ft | 416 kts | 311° |
| 2026-04-23 08:09 | 35.87462 | -121.29056 | 30219 ft | 417 kts | 311° |
| 2026-04-23 08:09 | 35.91718 | -121.33913 | 30221 ft | 415 kts | 311° |
| 2026-04-23 08:10 | 35.95940 | -121.38736 | 30045 ft | 409 kts | 311° |
| 2026-04-23 08:10 | 35.98006 | -121.41091 | 29487 ft | 401 kts | 311° |
| 2026-04-23 08:10 | 36.02091 | -121.45767 | 27887 ft | 397 kts | 311° |
| 2026-04-23 08:11 | 36.04108 | -121.48079 | 27328 ft | 391 kts | 311° |
| 2026-04-23 08:11 | 36.06074 | -121.50332 | 27090 ft | 379 kts | 311° |
| 2026-04-23 08:11 | 36.07983 | -121.52518 | 26759 ft | 370 kts | 311° |
| 2026-04-23 08:11 | 36.09851 | -121.54663 | 26310 ft | 364 kts | 311° |
| 2026-04-23 08:12 | 36.11693 | -121.56783 | 25794 ft | 361 kts | 311° |
| 2026-04-23 08:12 | 36.13520 | -121.58891 | 25645 ft | 359 kts | 311° |
| 2026-04-23 08:12 | 36.15351 | -121.61006 | 25623 ft | 360 kts | 311° |
| 2026-04-23 08:12 | 36.17308 | -121.62964 | 25592 ft | 365 kts | 319° |
| 2026-04-23 08:13 | 36.19535 | -121.64528 | 25542 ft | 373 kts | 328° |
| 2026-04-23 08:13 | 36.21973 | -121.65684 | 25492 ft | 377 kts | 333° |
| 2026-04-23 08:13 | 36.24469 | -121.66704 | 25445 ft | 378 kts | 334° |
| 2026-04-23 08:13 | 36.26971 | -121.67692 | 25394 ft | 377 kts | 334° |
| 2026-04-23 08:14 | 36.29473 | -121.68673 | 25352 ft | 377 kts | 334° |
| 2026-04-23 08:14 | 36.31978 | -121.69650 | 25305 ft | 377 kts | 335° |
| 2026-04-23 08:14 | 36.34452 | -121.70603 | 25281 ft | 377 kts | 335° |
| 2026-04-23 08:14 | 36.36955 | -121.71566 | 25255 ft | 377 kts | 335° |
| 2026-04-23 08:15 | 36.39456 | -121.72530 | 25226 ft | 376 kts | 335° |
| 2026-04-23 08:15 | 36.41960 | -121.73497 | 25164 ft | 378 kts | 335° |
| 2026-04-23 08:15 | 36.44469 | -121.74466 | 24854 ft | 378 kts | 335° |
| 2026-04-23 08:15 | 36.46975 | -121.75435 | 24397 ft | 377 kts | 335° |
| 2026-04-23 08:16 | 36.49473 | -121.76400 | 23886 ft | 375 kts | 336° |
| 2026-04-23 08:16 | 36.51956 | -121.77361 | 23280 ft | 373 kts | 336° |
| 2026-04-23 08:16 | 36.54422 | -121.78316 | 22664 ft | 370 kts | 336° |
| 2026-04-23 08:16 | 36.56871 | -121.79265 | 22056 ft | 367 kts | 336° |
| 2026-04-23 08:17 | 36.59297 | -121.80206 | 21474 ft | 364 kts | 337° |
| 2026-04-23 08:17 | 36.61709 | -121.81142 | 20897 ft | 361 kts | 337° |
| 2026-04-23 08:17 | 36.64097 | -121.82070 | 20332 ft | 358 kts | 338° |
| 2026-04-23 08:17 | 36.66468 | -121.82992 | 19780 ft | 356 kts | 338° |
| 2026-04-23 08:18 | 36.68027 | -121.83599 | 19435 ft | 354 kts | 338° |
| 2026-04-23 08:18 | 36.71159 | -121.84818 | 18738 ft | 351 kts | 338° |
| 2026-04-23 08:18 | 36.72698 | -121.85418 | 18400 ft | 349 kts | 338° |
| 2026-04-23 08:18 | 36.75011 | -121.86320 | 17801 ft | 347 kts | 339° |
| 2026-04-23 08:19 | 36.77309 | -121.87216 | 17241 ft | 345 kts | 339° |
| 2026-04-23 08:19 | 36.79589 | -121.88106 | 16684 ft | 342 kts | 339° |
| 2026-04-23 08:19 | 36.81854 | -121.88991 | 16129 ft | 340 kts | 340° |
| 2026-04-23 08:19 | 36.84104 | -121.89870 | 15583 ft | 338 kts | 340° |
| 2026-04-23 08:20 | 36.86341 | -121.90745 | 15039 ft | 336 kts | 340° |
| 2026-04-23 08:20 | 36.88563 | -121.91614 | 14578 ft | 333 kts | 340° |
| 2026-04-23 08:20 | 36.90771 | -121.92479 | 14128 ft | 332 kts | 341° |
| 2026-04-23 08:20 | 36.92974 | -121.93342 | 13628 ft | 331 kts | 341° |
| 2026-04-23 08:21 | 36.95163 | -121.94200 | 13127 ft | 329 kts | 341° |
| 2026-04-23 08:21 | 36.97341 | -121.95054 | 12648 ft | 327 kts | 341° |
| 2026-04-23 08:21 | 36.99505 | -121.95903 | 12158 ft | 325 kts | 342° |
| 2026-04-23 08:21 | 37.01627 | -121.96736 | 11688 ft | 323 kts | 342° |
| 2026-04-23 08:22 | 37.03766 | -121.97576 | 11221 ft | 321 kts | 342° |
| 2026-04-23 08:22 | 37.05891 | -121.98412 | 10754 ft | 319 kts | 342° |
| 2026-04-23 08:22 | 37.07995 | -121.99239 | 10298 ft | 314 kts | 342° |
| 2026-04-23 08:22 | 37.10063 | -122.00053 | 9820 ft | 309 kts | 342° |
| 2026-04-23 08:23 | 37.12090 | -122.00851 | 9329 ft | 303 kts | 342° |
| 2026-04-23 08:23 | 37.14087 | -122.01638 | 8848 ft | 298 kts | 342° |
| 2026-04-23 08:23 | 37.16046 | -122.02410 | 8404 ft | 292 kts | 342° |
| 2026-04-23 08:23 | 37.17962 | -122.03166 | 8029 ft | 285 kts | 342° |
| 2026-04-23 08:24 | 37.19831 | -122.03904 | 7658 ft | 278 kts | 343° |
| 2026-04-23 08:24 | 37.21637 | -122.04617 | 7290 ft | 266 kts | 343° |
| 2026-04-23 08:24 | 37.23362 | -122.05298 | 6929 ft | 254 kts | 343° |
| 2026-04-23 08:24 | 37.25026 | -122.05955 | 6566 ft | 249 kts | 343° |
| 2026-04-23 08:25 | 37.26671 | -122.06606 | 6193 ft | 247 kts | 343° |
| 2026-04-23 08:25 | 37.28303 | -122.07251 | 5810 ft | 245 kts | 343° |
| 2026-04-23 08:25 | 37.29922 | -122.07892 | 5428 ft | 244 kts | 343° |
| 2026-04-23 08:25 | 37.31538 | -122.08531 | 5051 ft | 243 kts | 344° |
| 2026-04-23 08:26 | 37.33153 | -122.09171 | 4674 ft | 243 kts | 345° |
| 2026-04-23 08:26 | 37.34760 | -122.09807 | 4288 ft | 241 kts | 345° |
| 2026-04-23 08:26 | 37.36359 | -122.10440 | 3903 ft | 240 kts | 344° |
| 2026-04-23 08:26 | 37.37947 | -122.11070 | 3532 ft | 239 kts | 343° |
| 2026-04-23 08:27 | 37.39517 | -122.11693 | 3218 ft | 235 kts | 343° |
| 2026-04-23 08:27 | 37.41062 | -122.12307 | 2915 ft | 231 kts | 343° |
| 2026-04-23 08:27 | 37.42586 | -122.12912 | 2610 ft | 228 kts | 343° |
| 2026-04-23 08:27 | 37.44067 | -122.13501 | 2385 ft | 222 kts | 342° |
| 2026-04-23 08:28 | 37.45506 | -122.14072 | 2243 ft | 213 kts | 342° |
| 2026-04-23 08:28 | 37.46891 | -122.14623 | 2104 ft | 205 kts | 342° |
| 2026-04-23 08:28 | 37.48230 | -122.15156 | 1950 ft | 198 kts | 342° |
| 2026-04-23 08:28 | 37.49521 | -122.15670 | 1825 ft | 190 kts | 342° |
| 2026-04-23 08:29 | 37.50748 | -122.16158 | 1807 ft | 180 kts | 342° |
| 2026-04-23 08:29 | 37.51928 | -122.16648 | 1813 ft | 178 kts | 338° |
| 2026-04-23 08:29 | 37.53029 | -122.17362 | 1808 ft | 178 kts | 321° |
| 2026-04-23 08:29 | 37.53919 | -122.18442 | 1812 ft | 178 kts | 310° |
| 2026-04-23 08:30 | 37.54625 | -122.19726 | 1815 ft | 179 kts | 300° |
| 2026-04-23 08:30 | 37.55205 | -122.21071 | 1841 ft | 163 kts | 299° |
| 2026-04-23 08:30 | 37.55701 | -122.22238 | 1821 ft | 143 kts | 298° |
| 2026-04-23 08:30 | 37.56159 | -122.23331 | 1821 ft | 140 kts | 298° |
| 2026-04-23 08:31 | 37.56619 | -122.24416 | 1820 ft | 140 kts | 298° |
| 2026-04-23 08:31 | 37.57079 | -122.25502 | 1815 ft | 141 kts | 298° |
| 2026-04-23 08:31 | 37.57537 | -122.26587 | 1692 ft | 138 kts | 298° |
| 2026-04-23 08:31 | 37.57977 | -122.27637 | 1496 ft | 134 kts | 298° |
| 2026-04-23 08:32 | 37.58409 | -122.28670 | 1363 ft | 130 kts | 298° |
| 2026-04-23 08:32 | 37.58828 | -122.29672 | 1130 ft | 130 kts | 298° |
| 2026-04-23 08:32 | 37.59254 | -122.30688 | 948 ft | 132 kts | 297° |
| 2026-04-23 08:32 | 37.59537 | -122.31366 | 828 ft | 132 kts | 297° |